RPA3488 KEWR-KDCA
Flight info
| Callsign | RPA3488 |
|---|---|
| Flight time | 0h 41m |
| Altitude | 28000 |
| Route | BIGGY Q75 MXE CLIPR3 |
| Aircraft | E75L/M-SDE3GILORVW/S |
Departure
| Time | 2026-05-08 02:07 |
|---|---|
| Airport | Newark Liberty International Airport (KEWR) |
Arrival
| Time | 2026-05-08 02:48 |
|---|---|
| Airport | Ronald Reagan Washington National Airport (KDCA) |
| Time | Latitude | Longitude | Altitude | Speed | Heading |
|---|---|---|---|---|---|
| 2026-05-08 01:42 | 40.69623 | -74.17567 | 19 ft | 0 kts | 328° |
| 2026-05-08 01:56 | 40.69619 | -74.17563 | 18 ft | 3 kts | 328° |
| 2026-05-08 01:56 | 40.69603 | -74.17550 | 18 ft | 0 kts | 328° |
| 2026-05-08 01:56 | 40.69592 | -74.17541 | 17 ft | 7 kts | 328° |
| 2026-05-08 01:57 | 40.69554 | -74.17533 | 18 ft | 0 kts | 6° |
| 2026-05-08 01:58 | 40.69554 | -74.17532 | 18 ft | 0 kts | 6° |
| 2026-05-08 01:59 | 40.69559 | -74.17532 | 18 ft | 1 kts | 6° |
| 2026-05-08 01:59 | 40.69573 | -74.17528 | 20 ft | 3 kts | 16° |
| 2026-05-08 01:59 | 40.69600 | -74.17507 | 24 ft | 6 kts | 38° |
| 2026-05-08 02:00 | 40.69642 | -74.17463 | 18 ft | 8 kts | 39° |
| 2026-05-08 02:00 | 40.69685 | -74.17415 | 18 ft | 8 kts | 40° |
| 2026-05-08 02:00 | 40.69725 | -74.17370 | 20 ft | 0 kts | 39° |
| 2026-05-08 02:01 | 40.69737 | -74.17357 | 21 ft | 4 kts | 39° |
| 2026-05-08 02:01 | 40.69767 | -74.17325 | 20 ft | 8 kts | 38° |
| 2026-05-08 02:01 | 40.69813 | -74.17270 | 19 ft | 11 kts | 45° |
| 2026-05-08 02:01 | 40.69829 | -74.17186 | 20 ft | 11 kts | 131° |
| 2026-05-08 02:02 | 40.69756 | -74.17105 | 18 ft | 16 kts | 146° |
| 2026-05-08 02:02 | 40.69652 | -74.17032 | 18 ft | 18 kts | 159° |
| 2026-05-08 02:02 | 40.69526 | -74.16984 | 19 ft | 18 kts | 173° |
| 2026-05-08 02:02 | 40.69424 | -74.16974 | 18 ft | 13 kts | 179° |
| 2026-05-08 02:03 | 40.69318 | -74.16990 | 17 ft | 18 kts | 193° |
| 2026-05-08 02:03 | 40.69192 | -74.17055 | 16 ft | 20 kts | 205° |
| 2026-05-08 02:03 | 40.69058 | -74.17140 | 14 ft | 23 kts | 206° |
| 2026-05-08 02:03 | 40.68912 | -74.17232 | 19 ft | 23 kts | 205° |
| 2026-05-08 02:04 | 40.68768 | -74.17323 | 21 ft | 24 kts | 206° |
| 2026-05-08 02:04 | 40.68613 | -74.17422 | 24 ft | 25 kts | 205° |
| 2026-05-08 02:04 | 40.68442 | -74.17530 | 22 ft | 29 kts | 206° |
| 2026-05-08 02:04 | 40.68253 | -74.17652 | 17 ft | 32 kts | 206° |
| 2026-05-08 02:05 | 40.68070 | -74.17768 | 17 ft | 29 kts | 206° |
| 2026-05-08 02:05 | 40.67902 | -74.17875 | 20 ft | 24 kts | 206° |
| 2026-05-08 02:05 | 40.67759 | -74.17966 | 19 ft | 22 kts | 206° |
| 2026-05-08 02:05 | 40.67646 | -74.18037 | 20 ft | 15 kts | 205° |
| 2026-05-08 02:06 | 40.67590 | -74.18032 | 19 ft | 10 kts | 132° |
| 2026-05-08 02:06 | 40.67568 | -74.17943 | 20 ft | 11 kts | 74° |
| 2026-05-08 02:06 | 40.67632 | -74.17882 | 19 ft | 22 kts | 24° |
| 2026-05-08 02:06 | 40.67887 | -74.17721 | 15 ft | 100 kts | 25° |
| 2026-05-08 02:07 | 40.68773 | -74.17155 | 369 ft | 161 kts | 25° |
| 2026-05-08 02:07 | 40.69841 | -74.16440 | 1429 ft | 181 kts | 29° |
| 2026-05-08 02:07 | 40.70919 | -74.15352 | 2515 ft | 216 kts | 40° |
| 2026-05-08 02:07 | 40.72140 | -74.13789 | 2900 ft | 263 kts | 44° |
| 2026-05-08 02:08 | 40.73406 | -74.12092 | 2995 ft | 253 kts | 44° |
| 2026-05-08 02:08 | 40.74611 | -74.10520 | 3003 ft | 235 kts | 40° |
| 2026-05-08 02:08 | 40.76002 | -74.09544 | 2790 ft | 226 kts | 11° |
| 2026-05-08 02:08 | 40.77567 | -74.09712 | 2520 ft | 249 kts | 337° |
| 2026-05-08 02:09 | 40.79059 | -74.11255 | 3158 ft | 292 kts | 307° |
| 2026-05-08 02:09 | 40.79842 | -74.13680 | 4834 ft | 282 kts | 277° |
| 2026-05-08 02:09 | 40.79868 | -74.16165 | 6912 ft | 261 kts | 268° |
| 2026-05-08 02:09 | 40.79806 | -74.18478 | 8711 ft | 253 kts | 268° |
| 2026-05-08 02:10 | 40.79708 | -74.20792 | 10250 ft | 253 kts | 264° |
| 2026-05-08 02:10 | 40.79125 | -74.23058 | 11301 ft | 275 kts | 244° |
| 2026-05-08 02:10 | 40.78089 | -74.25287 | 12227 ft | 293 kts | 240° |
| 2026-05-08 02:10 | 40.76936 | -74.27516 | 13587 ft | 295 kts | 239° |
| 2026-05-08 02:11 | 40.75773 | -74.29744 | 14923 ft | 294 kts | 238° |
| 2026-05-08 02:11 | 40.74624 | -74.31983 | 16190 ft | 296 kts | 238° |
| 2026-05-08 02:11 | 40.73479 | -74.34257 | 17458 ft | 298 kts | 238° |
| 2026-05-08 02:11 | 40.72332 | -74.36561 | 18700 ft | 299 kts | 238° |
| 2026-05-08 02:12 | 40.71194 | -74.38856 | 19834 ft | 300 kts | 238° |
| 2026-05-08 02:12 | 40.70041 | -74.41181 | 20739 ft | 307 kts | 239° |
| 2026-05-08 02:12 | 40.68864 | -74.43555 | 21763 ft | 310 kts | 239° |
| 2026-05-08 02:12 | 40.67676 | -74.45948 | 22793 ft | 314 kts | 239° |
| 2026-05-08 02:13 | 40.66485 | -74.48344 | 23715 ft | 318 kts | 240° |
| 2026-05-08 02:13 | 40.65264 | -74.50797 | 24582 ft | 321 kts | 240° |
| 2026-05-08 02:13 | 40.64037 | -74.53262 | 25431 ft | 324 kts | 240° |
| 2026-05-08 02:13 | 40.62791 | -74.55761 | 26238 ft | 327 kts | 240° |
| 2026-05-08 02:14 | 40.61530 | -74.58289 | 27014 ft | 331 kts | 240° |
| 2026-05-08 02:14 | 40.60260 | -74.60833 | 27633 ft | 334 kts | 240° |
| 2026-05-08 02:14 | 40.58978 | -74.63398 | 27840 ft | 336 kts | 240° |
| 2026-05-08 02:14 | 40.57694 | -74.65965 | 27884 ft | 336 kts | 240° |
| 2026-05-08 02:15 | 40.56405 | -74.68538 | 27877 ft | 336 kts | 240° |
| 2026-05-08 02:15 | 40.55134 | -74.71074 | 27879 ft | 336 kts | 240° |
| 2026-05-08 02:15 | 40.53850 | -74.73634 | 27845 ft | 338 kts | 240° |
| 2026-05-08 02:15 | 40.52518 | -74.76297 | 27880 ft | 358 kts | 240° |
| 2026-05-08 02:16 | 40.51115 | -74.79101 | 27876 ft | 374 kts | 240° |
| 2026-05-08 02:16 | 40.49671 | -74.81971 | 27871 ft | 375 kts | 240° |
| 2026-05-08 02:16 | 40.48230 | -74.84826 | 27869 ft | 375 kts | 240° |
| 2026-05-08 02:16 | 40.46790 | -74.87679 | 27875 ft | 375 kts | 240° |
| 2026-05-08 02:17 | 40.45349 | -74.90533 | 27876 ft | 375 kts | 240° |
| 2026-05-08 02:17 | 40.43907 | -74.93389 | 27875 ft | 375 kts | 240° |
| 2026-05-08 02:17 | 40.42435 | -74.96224 | 27875 ft | 376 kts | 238° |
| 2026-05-08 02:17 | 40.40809 | -74.98876 | 27874 ft | 379 kts | 233° |
| 2026-05-08 02:18 | 40.39008 | -75.01416 | 27880 ft | 380 kts | 232° |
| 2026-05-08 02:18 | 40.37197 | -75.03948 | 27878 ft | 380 kts | 232° |
| 2026-05-08 02:18 | 40.35390 | -75.06481 | 27905 ft | 380 kts | 232° |
| 2026-05-08 02:18 | 40.33589 | -75.09008 | 27876 ft | 379 kts | 232° |
| 2026-05-08 02:19 | 40.31787 | -75.11536 | 27880 ft | 379 kts | 232° |
| 2026-05-08 02:19 | 40.29980 | -75.14069 | 27880 ft | 379 kts | 232° |
| 2026-05-08 02:19 | 40.28204 | -75.16556 | 27878 ft | 379 kts | 232° |
| 2026-05-08 02:19 | 40.26397 | -75.19083 | 27878 ft | 379 kts | 232° |
| 2026-05-08 02:20 | 40.24586 | -75.21613 | 27878 ft | 380 kts | 232° |
| 2026-05-08 02:20 | 40.22779 | -75.24135 | 27896 ft | 380 kts | 232° |
| 2026-05-08 02:20 | 40.20969 | -75.26661 | 27897 ft | 380 kts | 232° |
| 2026-05-08 02:20 | 40.19163 | -75.29178 | 27898 ft | 380 kts | 232° |
| 2026-05-08 02:21 | 40.17352 | -75.31701 | 27897 ft | 379 kts | 232° |
| 2026-05-08 02:21 | 40.15547 | -75.34212 | 27897 ft | 379 kts | 232° |
| 2026-05-08 02:21 | 40.13762 | -75.36695 | 27897 ft | 380 kts | 232° |
| 2026-05-08 02:21 | 40.11949 | -75.39214 | 27896 ft | 380 kts | 232° |
| 2026-05-08 02:22 | 40.10142 | -75.41722 | 27896 ft | 380 kts | 232° |
| 2026-05-08 02:22 | 40.08335 | -75.44229 | 27898 ft | 379 kts | 232° |
| 2026-05-08 02:22 | 40.06525 | -75.46737 | 27911 ft | 379 kts | 232° |
| 2026-05-08 02:22 | 40.04718 | -75.49241 | 27916 ft | 379 kts | 232° |
| 2026-05-08 02:23 | 40.02909 | -75.51745 | 27915 ft | 379 kts | 232° |
| 2026-05-08 02:23 | 40.01094 | -75.54254 | 27915 ft | 379 kts | 232° |
| 2026-05-08 02:23 | 39.99285 | -75.56753 | 27883 ft | 379 kts | 233° |
| 2026-05-08 02:23 | 39.97470 | -75.59257 | 27920 ft | 379 kts | 233° |
| 2026-05-08 02:24 | 39.95658 | -75.61755 | 27914 ft | 379 kts | 233° |
| 2026-05-08 02:24 | 39.93846 | -75.64252 | 27914 ft | 379 kts | 233° |
| 2026-05-08 02:24 | 39.92074 | -75.66797 | 27914 ft | 377 kts | 236° |
| 2026-05-08 02:24 | 39.90520 | -75.69484 | 27910 ft | 373 kts | 240° |
| 2026-05-08 02:25 | 39.89088 | -75.72256 | 27835 ft | 364 kts | 240° |
| 2026-05-08 02:25 | 39.87696 | -75.74937 | 27461 ft | 353 kts | 240° |
| 2026-05-08 02:25 | 39.86320 | -75.77590 | 26496 ft | 355 kts | 240° |
| 2026-05-08 02:25 | 39.84941 | -75.80245 | 25753 ft | 352 kts | 240° |
| 2026-05-08 02:26 | 39.83571 | -75.82875 | 25012 ft | 349 kts | 240° |
| 2026-05-08 02:26 | 39.82212 | -75.85479 | 24266 ft | 346 kts | 240° |
| 2026-05-08 02:26 | 39.80861 | -75.88066 | 23521 ft | 344 kts | 239° |
| 2026-05-08 02:26 | 39.79535 | -75.90601 | 22710 ft | 341 kts | 239° |
| 2026-05-08 02:27 | 39.78208 | -75.93137 | 21906 ft | 337 kts | 239° |
| 2026-05-08 02:27 | 39.76893 | -75.95648 | 21093 ft | 333 kts | 239° |
| 2026-05-08 02:27 | 39.75594 | -75.98127 | 20286 ft | 331 kts | 239° |
| 2026-05-08 02:27 | 39.74303 | -76.00589 | 19526 ft | 328 kts | 239° |
| 2026-05-08 02:28 | 39.73024 | -76.03026 | 18785 ft | 325 kts | 238° |
| 2026-05-08 02:28 | 39.71757 | -76.05440 | 18040 ft | 322 kts | 238° |
| 2026-05-08 02:28 | 39.70496 | -76.07837 | 17176 ft | 320 kts | 238° |
| 2026-05-08 02:28 | 39.69255 | -76.10193 | 16741 ft | 309 kts | 238° |
| 2026-05-08 02:29 | 39.68070 | -76.12436 | 16449 ft | 294 kts | 239° |
| 2026-05-08 02:29 | 39.66917 | -76.14622 | 16181 ft | 295 kts | 239° |
| 2026-05-08 02:29 | 39.65767 | -76.16798 | 15844 ft | 296 kts | 239° |
| 2026-05-08 02:29 | 39.64598 | -76.19018 | 15272 ft | 298 kts | 239° |
| 2026-05-08 02:30 | 39.63446 | -76.21205 | 14994 ft | 291 kts | 239° |
| 2026-05-08 02:30 | 39.62292 | -76.23394 | 14837 ft | 295 kts | 239° |
| 2026-05-08 02:30 | 39.61129 | -76.25595 | 14599 ft | 295 kts | 239° |
| 2026-05-08 02:30 | 39.59956 | -76.27780 | 14329 ft | 294 kts | 237° |
| 2026-05-08 02:31 | 39.58604 | -76.29798 | 14154 ft | 300 kts | 230° |
| 2026-05-08 02:31 | 39.57018 | -76.31591 | 13728 ft | 306 kts | 223° |
| 2026-05-08 02:31 | 39.55229 | -76.33191 | 12673 ft | 319 kts | 219° |
| 2026-05-08 02:31 | 39.53412 | -76.34756 | 12121 ft | 314 kts | 219° |
| 2026-05-08 02:32 | 39.51633 | -76.36279 | 11974 ft | 303 kts | 219° |
| 2026-05-08 02:32 | 39.49867 | -76.37802 | 11961 ft | 306 kts | 219° |
| 2026-05-08 02:32 | 39.48079 | -76.39353 | 11961 ft | 305 kts | 219° |
| 2026-05-08 02:32 | 39.46335 | -76.40870 | 11961 ft | 305 kts | 219° |
| 2026-05-08 02:33 | 39.44572 | -76.42403 | 11947 ft | 304 kts | 219° |
| 2026-05-08 02:33 | 39.42820 | -76.43920 | 11662 ft | 304 kts | 219° |
| 2026-05-08 02:33 | 39.41044 | -76.45464 | 10789 ft | 313 kts | 219° |
| 2026-05-08 02:33 | 39.39234 | -76.47034 | 10279 ft | 309 kts | 219° |
| 2026-05-08 02:34 | 39.37461 | -76.48565 | 10051 ft | 307 kts | 219° |
| 2026-05-08 02:34 | 39.35675 | -76.50111 | 10032 ft | 308 kts | 219° |
| 2026-05-08 02:34 | 39.33909 | -76.51638 | 10027 ft | 297 kts | 219° |
| 2026-05-08 02:34 | 39.32247 | -76.53066 | 10029 ft | 277 kts | 219° |
| 2026-05-08 02:35 | 39.30666 | -76.54430 | 10024 ft | 275 kts | 219° |
| 2026-05-08 02:35 | 39.29095 | -76.55794 | 10023 ft | 274 kts | 219° |
| 2026-05-08 02:35 | 39.27514 | -76.57166 | 9997 ft | 275 kts | 219° |
| 2026-05-08 02:35 | 39.25927 | -76.58538 | 9998 ft | 274 kts | 219° |
| 2026-05-08 02:36 | 39.24333 | -76.59912 | 9997 ft | 273 kts | 219° |
| 2026-05-08 02:36 | 39.22753 | -76.61273 | 10002 ft | 273 kts | 219° |
| 2026-05-08 02:36 | 39.21169 | -76.62637 | 10002 ft | 274 kts | 219° |
| 2026-05-08 02:36 | 39.19587 | -76.63998 | 10003 ft | 274 kts | 219° |
| 2026-05-08 02:37 | 39.17999 | -76.65365 | 10001 ft | 274 kts | 219° |
| 2026-05-08 02:37 | 39.16510 | -76.66817 | 10006 ft | 270 kts | 227° |
| 2026-05-08 02:37 | 39.15141 | -76.68454 | 9894 ft | 268 kts | 228° |
| 2026-05-08 02:37 | 39.13770 | -76.70088 | 9458 ft | 268 kts | 228° |
| 2026-05-08 02:38 | 39.12394 | -76.71722 | 8995 ft | 269 kts | 227° |
| 2026-05-08 02:38 | 39.11014 | -76.73358 | 8523 ft | 269 kts | 227° |
| 2026-05-08 02:38 | 39.09634 | -76.74990 | 8064 ft | 269 kts | 227° |
| 2026-05-08 02:38 | 39.08257 | -76.76619 | 7606 ft | 269 kts | 227° |
| 2026-05-08 02:39 | 39.06897 | -76.78227 | 7172 ft | 269 kts | 227° |
| 2026-05-08 02:39 | 39.05518 | -76.79858 | 6717 ft | 269 kts | 227° |
| 2026-05-08 02:39 | 39.04134 | -76.81495 | 6190 ft | 272 kts | 227° |
| 2026-05-08 02:39 | 39.02749 | -76.83141 | 5791 ft | 270 kts | 227° |
| 2026-05-08 02:40 | 39.01383 | -76.84762 | 5395 ft | 268 kts | 226° |
| 2026-05-08 02:40 | 39.00021 | -76.86365 | 5119 ft | 265 kts | 226° |
| 2026-05-08 02:40 | 38.98650 | -76.87976 | 5028 ft | 265 kts | 227° |
| 2026-05-08 02:40 | 38.97566 | -76.89818 | 5030 ft | 257 kts | 251° |
| 2026-05-08 02:41 | 38.97257 | -76.92034 | 5031 ft | 250 kts | 274° |
| 2026-05-08 02:41 | 38.97330 | -76.94269 | 5030 ft | 251 kts | 275° |
| 2026-05-08 02:41 | 38.97413 | -76.96507 | 5030 ft | 251 kts | 275° |
| 2026-05-08 02:41 | 38.97497 | -76.98743 | 5030 ft | 250 kts | 275° |
| 2026-05-08 02:42 | 38.97589 | -77.00963 | 5028 ft | 248 kts | 279° |
| 2026-05-08 02:42 | 38.98130 | -77.03049 | 5029 ft | 247 kts | 301° |
| 2026-05-08 02:42 | 38.99238 | -77.04694 | 5022 ft | 247 kts | 316° |
| 2026-05-08 02:42 | 39.00489 | -77.06193 | 4962 ft | 237 kts | 315° |
| 2026-05-08 02:43 | 39.01378 | -77.07852 | 4867 ft | 224 kts | 291° |
| 2026-05-08 02:43 | 39.01533 | -77.09786 | 4753 ft | 215 kts | 264° |
| 2026-05-08 02:43 | 39.00983 | -77.11511 | 4649 ft | 206 kts | 238° |
| 2026-05-08 02:43 | 38.99946 | -77.12674 | 4509 ft | 193 kts | 217° |
| 2026-05-08 02:44 | 38.98807 | -77.13545 | 4071 ft | 189 kts | 217° |
| 2026-05-08 02:44 | 38.97683 | -77.14416 | 3608 ft | 187 kts | 217° |
| 2026-05-08 02:44 | 38.96447 | -77.14901 | 3162 ft | 191 kts | 182° |
| 2026-05-08 02:44 | 38.95163 | -77.14286 | 3033 ft | 203 kts | 149° |
| 2026-05-08 02:45 | 38.94104 | -77.13070 | 2796 ft | 207 kts | 134° |
| 2026-05-08 02:45 | 38.93118 | -77.11742 | 2150 ft | 208 kts | 139° |
| 2026-05-08 02:45 | 38.92009 | -77.10540 | 1555 ft | 201 kts | 144° |
| 2026-05-08 02:45 | 38.91067 | -77.09356 | 1310 ft | 181 kts | 131° |
| 2026-05-08 02:46 | 38.90439 | -77.08068 | 1178 ft | 160 kts | 120° |
| 2026-05-08 02:46 | 38.89898 | -77.06845 | 960 ft | 153 kts | 128° |
| 2026-05-08 02:46 | 38.89252 | -77.05860 | 703 ft | 135 kts | 139° |
| 2026-05-08 02:46 | 38.88520 | -77.05081 | 557 ft | 138 kts | 144° |
| 2026-05-08 02:47 | 38.87787 | -77.04309 | 461 ft | 136 kts | 153° |
| 2026-05-08 02:47 | 38.86909 | -77.03964 | 220 ft | 130 kts | 175° |
| 2026-05-08 02:47 | 38.86043 | -77.03863 | 49 ft | 128 kts | 177° |
| 2026-05-08 02:47 | 38.85222 | -77.03786 | 20 ft | 109 kts | 175° |
| 2026-05-08 02:48 | 38.84694 | -77.03733 | 21 ft | 51 kts | 175° |
| 2026-05-08 02:48 | 38.84467 | -77.03711 | 21 ft | 17 kts | 185° |
| 2026-05-08 02:48 | 38.84397 | -77.03767 | 24 ft | 9 kts | 249° |
| 2026-05-08 02:48 | 38.84424 | -77.03841 | 23 ft | 13 kts | 341° |
| 2026-05-08 02:49 | 38.84537 | -77.03854 | 21 ft | 20 kts | 355° |
| 2026-05-08 02:49 | 38.84695 | -77.03871 | 23 ft | 25 kts | 355° |
| 2026-05-08 02:49 | 38.84892 | -77.03890 | 18 ft | 32 kts | 355° |
| 2026-05-08 02:49 | 38.85115 | -77.03912 | 20 ft | 30 kts | 355° |
| 2026-05-08 02:50 | 38.85287 | -77.03928 | 19 ft | 18 kts | 359° |
| 2026-05-08 02:50 | 38.85338 | -77.03999 | 21 ft | 12 kts | 266° |
| 2026-05-08 02:50 | 38.85326 | -77.04073 | 22 ft | 8 kts | 249° |
| 2026-05-08 02:50 | 38.85312 | -77.04127 | 22 ft | 1 kts | 266° |
| 2026-05-08 02:51 | 38.85316 | -77.04139 | 22 ft | 1 kts | 319° |
| 2026-05-08 02:51 | 38.85323 | -77.04142 | 22 ft | 2 kts | 347° |
| 2026-05-08 02:51 | 38.85347 | -77.04149 | 22 ft | 4 kts | 347° |
| 2026-05-08 02:51 | 38.85360 | -77.04152 | 23 ft | 0 kts | 347° |
| 2026-05-08 02:52 | 38.85362 | -77.04153 | 23 ft | 0 kts | 347° |
| 2026-05-08 02:52 | 38.85366 | -77.04154 | 23 ft | 0 kts | 347° |